createdAt,value
2019-04-03T00:03:30.469Z,8.47
2019-04-03T00:08:36.646Z,8.03
2019-04-03T00:13:42.945Z,8.57
2019-04-03T00:18:48.062Z,9.00
2019-04-03T00:23:53.151Z,9.08
2019-04-03T00:28:58.121Z,8.40
2019-04-03T00:34:02.928Z,8.35
2019-04-03T00:39:08.225Z,8.10
2019-04-03T00:44:13.061Z,7.92
2019-04-03T00:49:17.845Z,8.33
2019-04-03T00:54:22.639Z,8.63
2019-04-03T00:59:27.546Z,7.65
2019-04-03T01:04:32.454Z,9.03
2019-04-03T01:09:37.508Z,8.75
2019-04-03T01:14:42.363Z,8.03
2019-04-03T01:19:47.186Z,8.98
2019-04-03T01:24:51.975Z,8.13
2019-04-03T01:29:56.812Z,7.97
2019-04-03T01:35:01.614Z,7.70
2019-04-03T01:40:06.667Z,7.17
2019-04-03T01:45:11.728Z,7.07
2019-04-03T01:50:16.775Z,8.35
2019-04-03T01:55:21.946Z,7.77
2019-04-03T02:00:27.396Z,7.40
2019-04-03T02:05:32.314Z,7.97
2019-04-03T02:10:37.451Z,7.80
2019-04-03T02:15:42.336Z,7.70
2019-04-03T02:20:47.152Z,8.30
2019-04-03T02:25:51.960Z,7.72
2019-04-03T02:30:56.853Z,8.73
2019-04-03T02:36:01.574Z,7.92
2019-04-03T02:41:06.363Z,7.93
2019-04-03T02:46:11.363Z,8.67
2019-04-03T02:51:17.004Z,7.58
2019-04-03T02:56:22.786Z,7.93
2019-04-03T03:01:27.619Z,7.60
2019-04-03T03:06:33.280Z,7.83
2019-04-03T03:11:40.521Z,7.77
2019-04-03T03:16:49.200Z,8.83
2019-04-03T03:21:57.101Z,7.93
2019-04-03T03:27:02.141Z,8.57
2019-04-03T03:32:16.516Z,8.43
2019-04-03T03:37:14.455Z,7.77
2019-04-03T03:42:19.728Z,7.50
2019-04-03T03:47:25.164Z,8.20
2019-04-03T03:52:31.308Z,8.07
2019-04-03T03:57:39.216Z,8.57
2019-04-03T04:02:45.079Z,8.70
2019-04-03T04:07:50.500Z,8.10
2019-04-03T04:12:55.978Z,8.23
2019-04-03T04:18:01.345Z,8.17
2019-04-03T04:23:06.580Z,8.47
2019-04-03T04:28:13.033Z,8.43
2019-04-03T04:33:17.881Z,8.43
2019-04-03T04:38:22.743Z,7.93
2019-04-03T04:43:27.822Z,8.93
2019-04-03T04:48:33.020Z,8.20
2019-04-03T04:53:39.104Z,8.87
2019-04-03T04:58:44.069Z,8.97
2019-04-03T05:03:49.060Z,9.47
2019-04-03T05:08:53.914Z,9.27
2019-04-03T05:13:58.734Z,9.23
2019-04-03T05:19:10.654Z,9.00
2019-04-03T05:24:13.617Z,9.20
2019-04-03T05:29:17.905Z,9.90
2019-04-03T05:34:22.865Z,9.20
2019-04-03T05:39:28.029Z,9.50
2019-04-03T05:44:33.798Z,9.33
2019-04-03T05:49:38.819Z,9.47
2019-04-03T05:54:44.567Z,9.83
2019-04-03T06:00:00.040Z,9.83
2019-04-03T06:04:56.033Z,9.63
2019-04-03T06:10:00.997Z,9.30
2019-04-03T06:15:09.198Z,9.93
2019-04-03T06:20:14.346Z,9.67
2019-04-03T06:25:19.665Z,10.03
2019-04-03T06:30:25.750Z,10.07
2019-04-03T06:35:30.904Z,9.80
2019-04-03T06:40:36.318Z,9.30
2019-04-03T06:45:43.252Z,10.37
2019-04-03T06:50:48.194Z,10.43
2019-04-03T06:55:53.225Z,10.90
2019-04-03T07:00:58.385Z,10.80
2019-04-03T07:06:03.903Z,10.43
2019-04-03T07:11:08.689Z,10.72
2019-04-03T07:16:13.866Z,10.25
2019-04-03T07:21:18.725Z,10.47
2019-04-03T07:26:23.503Z,11.83
2019-04-03T07:31:28.505Z,10.60
2019-04-03T07:36:34.782Z,11.13
2019-04-03T07:41:41.555Z,10.73
2019-04-03T07:46:47.272Z,10.43
2019-04-03T07:51:51.958Z,9.93
2019-04-03T08:09:17.460Z,11.03
2019-04-03T08:20:26.020Z,10.93
2019-04-03T08:25:30.365Z,10.60
2019-04-03T08:30:35.207Z,10.03
2019-04-03T08:35:39.931Z,9.48
2019-04-03T08:40:54.351Z,10.03
2019-04-03T08:46:00.045Z,10.05
2019-04-03T08:51:05.014Z,10.32
2019-04-03T08:56:10.013Z,10.27
2019-04-03T09:01:16.528Z,9.87
2019-04-03T09:06:22.401Z,9.58
2019-04-03T09:11:28.118Z,9.48
2019-04-03T09:16:33.711Z,10.23
2019-04-03T09:21:50.059Z,10.18
2019-04-03T09:26:53.114Z,9.88
2019-04-03T09:31:58.256Z,8.77
2019-04-03T09:37:05.816Z,9.75
2019-04-03T09:42:10.067Z,9.37
2019-04-03T09:47:15.387Z,9.53
2019-04-03T09:52:21.185Z,8.90
2019-04-03T09:57:30.669Z,9.63
2019-04-03T10:02:35.436Z,9.08
2019-04-03T10:07:40.860Z,7.03
2019-04-03T10:12:47.936Z,8.83
2019-04-03T10:17:51.990Z,9.05
2019-04-03T10:22:57.051Z,9.85
2019-04-03T10:28:03.311Z,8.65
2019-04-03T10:33:08.252Z,7.58
2019-04-03T10:38:17.529Z,8.83
2019-04-03T10:43:28.272Z,9.10
2019-04-03T10:48:33.542Z,8.30
2019-04-03T10:53:47.205Z,8.68
2019-04-03T10:58:52.220Z,9.03
2019-04-03T11:03:57.191Z,9.28
2019-04-03T11:09:04.587Z,8.43
2019-04-03T11:14:10.145Z,9.30
2019-04-03T11:19:15.147Z,8.60
2019-04-03T11:24:20.247Z,8.05
2019-04-03T11:29:28.150Z,9.03
2019-04-03T11:34:38.001Z,7.30
2019-04-03T11:39:45.647Z,7.83
2019-04-03T11:44:51.525Z,7.47
2019-04-03T11:49:57.696Z,8.03
2019-04-03T11:55:02.753Z,7.37
2019-04-03T12:00:13.387Z,6.60
2019-04-03T12:05:20.974Z,7.67
2019-04-03T12:10:26.195Z,6.35
2019-04-03T12:15:33.703Z,6.30
2019-04-03T12:20:43.753Z,6.08
2019-04-03T12:25:45.118Z,7.30
2019-04-03T12:30:50.174Z,7.35
2019-04-03T12:35:55.538Z,7.60
2019-04-03T12:41:04.274Z,7.42
2019-04-03T12:46:07.641Z,6.72
2019-04-03T12:51:12.576Z,5.30
2019-04-03T12:56:17.672Z,6.08
